Time;durP1;ratioP1;P1;durP2;ratioP2;P2;SDS_P1;SDS_P2;PMS_P1;PMS_P2;Temp;Humidity;BMP_temperature;BMP_pressure;BME280_temperature;BME280_humidity;BME280_pressure;Samples;Min_cycle;Max_cycle;Signal;HPM_P1;HPM_P2
2024/04/18 07:42:21;;;;;;;9.63;7.97;;;;;;;3.55;95.74;96390.69;2222311;26;20629;-62
2024/04/18 07:44:20;;;;;;;1.67;0.90;;;;;;;3.63;96.00;96396.56;2225902;26;20555;-64
2024/04/18 07:45:25;;;;;;;2.88;0.95;;;;;;;3.79;95.24;96384.16;2225129;26;20212;-64
2024/04/18 07:46:30;;;;;;;2.00;1.52;;;;;;;3.78;95.05;96391.94;2227363;26;20250;-65
2024/04/18 07:47:32;;;;;;;1.67;1.05;;;;;;;4.03;94.52;96395.66;2221457;26;20254;-64
2024/04/18 07:48:33;;;;;;;1.63;1.00;;;;;;;4.16;94.56;96400.56;2213818;26;20301;-64
2024/04/18 07:49:35;;;;;;;2.17;1.33;;;;;;;4.27;94.06;96398.59;2233914;26;20226;-64
2024/04/18 07:50:40;;;;;;;2.90;1.45;;;;;;;4.24;94.49;96403.81;2235678;26;20256;-64
2024/04/18 07:51:42;;;;;;;2.33;1.65;;;;;;;4.17;93.19;96402.28;2209256;26;20217;-65
2024/04/18 07:52:44;;;;;;;2.65;1.15;;;;;;;4.21;93.87;96406.47;2208869;26;20533;-65
2024/04/18 07:54:00;;;;;;;3.25;1.77;;;;;;;4.21;93.36;96407.31;2208056;26;20492;-64
2024/04/18 07:55:02;;;;;;;4.82;2.05;;;;;;;4.24;94.54;96407.25;2208021;26;20711;-64
2024/04/18 07:57:00;;;;;;;34.65;17.67;;;;;;;4.35;92.94;96406.16;2252699;26;20568;-63
2024/04/18 07:58:03;;;;;;;8.63;5.05;;;;;;;4.57;93.71;96409.91;2247248;26;20214;-64
2024/04/18 07:59:07;;;;;;;7.78;2.85;;;;;;;4.67;92.46;96407.97;2220839;26;20206;-63
2024/04/18 08:00:10;;;;;;;1.80;1.10;;;;;;;4.64;91.39;96400.25;2224470;26;20319;-63
2024/04/18 08:01:13;;;;;;;2.17;0.98;;;;;;;4.72;91.28;96413.00;2221555;26;20246;-63
2024/04/18 08:02:16;;;;;;;1.52;1.15;;;;;;;4.69;91.79;96413.09;2219967;26;20733;-63
2024/04/18 08:03:21;;;;;;;1.30;0.90;;;;;;;4.74;91.32;96416.41;2216681;26;20717;-63
2024/04/18 08:29:52;;;;;;;2.13;1.30;;;;;;;4.23;94.15;96457.25;2275030;25;21062;-63
2024/04/18 08:32:08;;;;;;;1.88;1.33;;;;;;;4.45;94.62;96461.94;2269907;25;20564;-63
2024/04/18 08:34:20;;;;;;;2.20;1.00;;;;;;;4.34;93.56;96458.75;2222012;26;20953;-62
2024/04/18 08:35:24;;;;;;;2.45;1.40;;;;;;;4.30;94.66;96463.13;2221615;26;20216;-63
2024/04/18 08:36:26;;;;;;;2.22;1.33;;;;;;;4.50;93.78;96461.84;2219916;26;20212;-63
2024/04/18 08:37:28;;;;;;;2.10;1.50;;;;;;;4.65;93.23;96468.38;2221296;26;20270;-63
2024/04/18 08:40:21;;;;;;;1.70;1.10;;;;;;;4.91;91.66;96462.56;2254631;25;21186;-63
2024/04/18 08:42:25;;;;;;;2.17;1.20;;;;;;;4.94;91.21;96465.09;2222656;26;20561;-63
2024/04/18 08:52:24;;;;;;;4.07;1.88;;;;;;;4.79;91.94;96473.22;2224583;26;20575;-63
2024/04/18 08:53:26;;;;;;;3.20;2.05;;;;;;;4.79;91.34;96468.06;2205987;26;20244;-63
2024/04/18 08:54:29;;;;;;;3.67;1.90;;;;;;;5.00;91.28;96467.50;2206689;26;20220;-63
2024/04/18 08:55:32;;;;;;;4.18;1.67;;;;;;;5.13;91.04;96472.34;2207778;26;20249;-64
2024/04/18 08:56:34;;;;;;;2.92;1.88;;;;;;;5.27;91.24;96477.19;2198426;26;20276;-63
2024/04/18 08:57:48;;;;;;;4.22;2.10;;;;;;;5.73;89.06;96471.59;2202214;26;20216;-63
2024/04/18 08:58:50;;;;;;;2.50;1.75;;;;;;;5.96;87.59;96469.25;2200128;26;20268;-64
2024/04/18 09:00:01;;;;;;;3.38;2.13;;;;;;;6.14;87.23;96478.25;2204063;26;20221;-63
2024/04/18 09:01:03;;;;;;;4.20;2.00;;;;;;;6.10;85.85;96474.91;2208223;26;20216;-64
2024/04/18 09:02:06;;;;;;;3.00;1.77;;;;;;;6.32;86.25;96477.72;2204353;26;20225;-63
2024/04/18 09:03:08;;;;;;;5.63;2.20;;;;;;;6.33;85.89;96479.38;2201442;26;20659;-63
2024/04/18 09:04:09;;;;;;;2.97;2.25;;;;;;;6.02;85.48;96482.91;2203438;26;20280;-63
2024/04/18 09:05:11;;;;;;;4.03;2.25;;;;;;;6.26;85.37;96477.91;2202769;26;20220;-63
2024/04/18 09:06:16;;;;;;;3.60;2.10;;;;;;;6.49;85.54;96481.53;2199996;26;20224;-63
2024/04/18 09:07:18;;;;;;;3.10;1.92;;;;;;;6.78;84.49;96482.34;2202707;26;20259;-64
2024/04/18 09:08:20;;;;;;;5.65;3.30;;;;;;;6.33;85.89;96483.75;2202194;26;20687;-63
2024/04/18 09:09:24;;;;;;;4.55;3.10;;;;;;;6.71;86.24;96486.88;2200903;27;20358;-63
2024/04/18 09:10:29;;;;;;;4.45;2.90;;;;;;;6.50;85.28;96485.81;2200553;26;21129;-63
2024/04/18 09:11:30;;;;;;;7.88;2.90;;;;;;;6.54;85.73;96493.47;2205358;26;20277;-63
2024/04/18 09:12:34;;;;;;;4.22;3.05;;;;;;;6.32;86.28;96489.81;2200567;26;20392;-63
2024/04/18 09:13:37;;;;;;;4.07;2.97;;;;;;;6.24;87.30;96491.81;2204029;26;20257;-63
2024/04/18 09:14:39;;;;;;;4.05;2.78;;;;;;;6.26;87.39;96495.19;2200267;26;20217;-63
2024/04/18 09:15:42;;;;;;;3.90;2.47;;;;;;;6.30;85.94;96495.06;2199860;26;20759;-63
2024/04/18 09:16:43;;;;;;;4.55;2.75;;;;;;;6.29;86.98;96492.53;2201903;26;20263;-64
2024/04/18 09:18:05;;;;;;;4.40;2.85;;;;;;;6.48;84.48;96488.47;2201443;26;20262;-63
2024/04/18 09:19:07;;;;;;;13.52;4.47;;;;;;;6.41;85.80;96491.28;2200004;26;20276;-64
2024/04/18 09:20:10;;;;;;;18.98;10.38;;;;;;;6.62;86.24;96490.63;2199717;26;20222;-63
2024/04/18 09:21:11;;;;;;;21.35;11.00;;;;;;;6.67;86.43;96493.91;2200552;26;20946;-64
2024/04/18 09:22:14;;;;;;;15.18;9.77;;;;;;;6.57;85.80;96502.88;2201497;26;20269;-63
2024/04/18 09:23:16;;;;;;;9.85;5.70;;;;;;;6.92;86.00;96490.56;2202008;26;20217;-63
2024/04/18 09:24:17;;;;;;;7.90;4.22;;;;;;;6.81;84.09;96498.66;2202289;26;20323;-63
2024/04/18 09:25:20;;;;;;;5.70;3.83;;;;;;;7.02;83.54;96497.13;2202038;26;20216;-63
2024/04/18 09:26:25;;;;;;;7.25;3.30;;;;;;;7.18;83.05;96491.44;2200191;26;20343;-64
2024/04/18 09:27:27;;;;;;;5.63;3.47;;;;;;;7.24;82.18;96493.81;2202897;26;20583;-64
2024/04/18 09:28:28;;;;;;;7.60;3.58;;;;;;;7.38;81.43;96495.09;2194824;26;20886;-63
2024/04/18 09:29:30;;;;;;;5.32;3.28;;;;;;;7.51;81.84;96491.19;2206645;26;20996;-64
2024/04/18 09:30:32;;;;;;;6.30;3.72;;;;;;;7.62;81.79;96494.25;2207179;26;20224;-63
2024/04/18 09:31:35;;;;;;;5.55;3.50;;;;;;;7.52;81.60;96498.06;2200934;26;20249;-63
2024/04/18 09:32:44;;;;;;;5.40;3.50;;;;;;;7.67;79.68;96494.94;2200325;26;20277;-63
2024/04/18 09:33:48;;;;;;;5.82;3.10;;;;;;;7.82;79.30;96496.13;2199596;26;20773;-64
2024/04/18 09:34:52;;;;;;;4.50;3.38;;;;;;;8.06;77.71;96492.69;2202888;26;20260;-63
2024/04/18 09:36:00;;;;;;;5.32;3.35;;;;;;;8.56;76.83;96494.28;2203648;26;20255;-63
2024/04/18 09:37:05;;;;;;;7.50;3.70;;;;;;;8.97;73.62;96492.66;2202646;26;20738;-63
2024/04/18 09:38:08;;;;;;;6.63;4.05;;;;;;;8.97;73.62;96492.66;2201309;26;20319;-64
2024/04/18 09:39:30;;;;;;;6.93;3.15;;;;;;;8.86;73.49;96494.00;2203913;26;20304;-64
2024/04/18 09:40:33;;;;;;;6.55;3.47;;;;;;;8.57;75.05;96491.66;2202973;26;20259;-64
2024/04/18 09:41:39;;;;;;;5.07;2.92;;;;;;;8.17;76.02;96495.75;2196998;26;20805;-63
2024/04/18 09:42:53;;;;;;;4.90;3.50;;;;;;;8.08;76.66;96499.53;2204439;26;20723;-63
2024/04/18 09:44:24;;;;;;;8.52;3.70;;;;;;;7.85;77.69;96497.78;2203665;26;20295;-63
2024/04/18 09:45:37;;;;;;;6.20;3.28;;;;;;;7.63;78.28;96500.28;2198462;26;20575;-64
2024/04/18 09:46:39;;;;;;;6.43;2.70;;;;;;;7.55;78.94;96510.09;2201245;26;20221;-63
2024/04/18 09:47:43;;;;;;;4.60;3.15;;;;;;;7.71;77.33;96503.47;2199987;26;20221;-63
2024/04/18 09:48:46;;;;;;;4.40;2.47;;;;;;;7.30;75.87;96503.16;2200813;26;20291;-63
2024/04/18 09:49:49;;;;;;;4.50;3.15;;;;;;;7.03;78.84;96508.34;2202304;26;20228;-64
2024/04/18 09:50:51;;;;;;;6.70;2.97;;;;;;;8.10;77.49;96504.66;2204228;26;20221;-63
2024/04/18 09:51:55;;;;;;;6.88;3.90;;;;;;;9.01;76.12;96514.22;2201019;26;20260;-63
2024/04/18 09:52:58;;;;;;;5.43;3.30;;;;;;;9.07;73.26;96505.31;2201423;26;20260;-63
2024/04/18 09:54:00;;;;;;;4.97;2.78;;;;;;;9.74;72.26;96496.41;2203365;26;20679;-63
2024/04/18 09:55:02;;;;;;;5.43;2.90;;;;;;;9.42;74.40;96511.66;2201173;26;20678;-64
2024/04/18 09:56:06;;;;;;;4.28;2.95;;;;;;;9.30;72.66;96509.56;2200924;26;20580;-64
2024/04/18 09:57:09;;;;;;;6.43;3.33;;;;;;;9.09;73.72;96513.91;2203048;26;20293;-66
2024/04/18 09:58:13;;;;;;;6.32;2.88;;;;;;;8.70;75.48;96511.97;2201095;26;20260;-66
2024/04/18 09:59:15;;;;;;;5.60;3.20;;;;;;;9.02;74.32;96515.09;2201746;26;20221;-66
2024/04/18 10:00:19;;;;;;;7.35;3.03;;;;;;;8.53;74.97;96516.09;2202745;26;20264;-66
2024/04/18 10:01:21;;;;;;;5.18;2.88;;;;;;;8.38;74.58;96520.13;2204677;26;20226;-66
2024/04/18 10:02:23;;;;;;;6.82;2.70;;;;;;;8.82;74.60;96522.78;2199891;26;20538;-66
2024/04/18 10:03:27;;;;;;;6.47;3.15;;;;;;;9.43;73.53;96517.72;2196184;26;20437;-66
2024/04/18 10:04:29;;;;;;;6.05;2.75;;;;;;;9.94;72.67;96518.13;2194380;26;20217;-66
2024/04/18 10:05:32;;;;;;;6.70;3.25;;;;;;;9.64;73.65;96513.34;2194663;26;20228;-66
2024/04/18 10:06:38;;;;;;;4.07;3.05;;;;;;;10.12;72.32;96521.72;2197554;26;20222;-66
2024/04/18 10:07:40;;;;;;;7.72;2.85;;;;;;;10.22;71.09;96528.22;2199143;26;20538;-66
2024/04/18 10:08:49;;;;;;;4.70;2.58;;;;;;;10.83;70.72;96520.22;2198924;26;20257;-68
2024/04/18 10:09:51;;;;;;;6.40;3.15;;;;;;;10.86;69.38;96520.94;2193989;26;20426;-66
2024/04/18 10:10:54;;;;;;;4.05;2.45;;;;;;;10.20;68.93;96522.19;2194958;26;20288;-65
2024/04/18 10:11:55;;;;;;;6.75;3.00;;;;;;;9.48;69.56;96527.06;2198450;26;20259;-66
2024/04/18 10:12:59;;;;;;;4.13;2.55;;;;;;;9.55;71.09;96530.25;2198701;26;20571;-68
2024/04/18 10:14:06;;;;;;;5.70;2.33;;;;;;;10.28;68.46;96530.53;2196476;26;20340;-68
2024/04/18 10:15:07;;;;;;;4.50;2.70;;;;;;;10.62;68.24;96531.59;2195032;26;20218;-68
2024/04/18 10:16:10;;;;;;;4.70;3.40;;;;;;;10.72;67.21;96526.81;2195579;26;20260;-68
2024/04/18 10:17:22;;;;;;;5.90;3.17;;;;;;;10.35;69.26;96533.72;2194104;26;20225;-68
2024/04/18 10:18:35;;;;;;;4.75;2.72;;;;;;;10.39;68.41;96544.91;2196474;26;20719;-68
2024/04/18 10:19:41;;;;;;;4.63;2.70;;;;;;;10.13;69.20;96536.44;2196604;26;20221;-68
2024/04/18 10:20:44;;;;;;;6.80;3.20;;;;;;;10.00;69.03;96538.75;2197667;26;20568;-68
2024/04/18 10:21:56;;;;;;;4.47;2.85;;;;;;;9.82;67.01;96542.16;2195752;26;20623;-66
2024/04/18 10:23:20;;;;;;;5.60;3.03;;;;;;;8.82;68.71;96537.53;2194527;26;20225;-66
2024/04/18 10:24:23;;;;;;;4.57;2.92;;;;;;;8.17;70.68;96535.59;2197010;26;20222;-63
2024/04/18 10:25:24;;;;;;;4.95;2.95;;;;;;;8.63;71.40;96530.47;2198254;26;20221;-63
2024/04/18 10:26:31;;;;;;;13.35;3.03;;;;;;;8.50;72.17;96545.69;2197929;26;20217;-63
2024/04/18 10:27:44;;;;;;;5.82;3.60;;;;;;;8.39;72.90;96544.38;2197827;26;20598;-64
2024/04/18 10:28:46;;;;;;;8.48;3.50;;;;;;;8.08;73.25;96543.75;2196360;26;20522;-66
2024/04/18 10:29:58;;;;;;;6.60;3.00;;;;;;;7.88;74.15;96548.81;2194472;26;20221;-65
2024/04/18 10:31:04;;;;;;;12.35;6.72;;;;;;;7.72;75.48;96548.50;2195031;26;20217;-65
2024/04/18 10:32:06;;;;;;;29.70;14.60;;;;;;;8.07;76.63;96547.25;2198359;26;20256;-66
2024/04/18 10:33:08;;;;;;;17.58;9.02;;;;;;;8.20;75.03;96545.03;2193713;26;20233;-66
2024/04/18 10:34:10;;;;;;;9.25;5.18;;;;;;;7.78;76.14;96549.16;2196095;26;20220;-68
2024/04/18 10:35:14;;;;;;;9.25;4.90;;;;;;;7.87;75.69;96547.13;2200185;26;20782;-68
2024/04/18 10:36:16;;;;;;;8.38;3.53;;;;;;;8.06;75.91;96536.91;2195748;26;20221;-68
2024/04/18 10:37:21;;;;;;;5.40;3.65;;;;;;;8.47;74.75;96550.19;2195186;26;20268;-68
2024/04/18 10:38:27;;;;;;;5.53;3.50;;;;;;;8.60;73.83;96560.97;2191494;26;20269;-68
2024/04/18 10:39:32;;;;;;;6.90;3.60;;;;;;;8.52;73.96;96552.59;2194963;26;20221;-68
2024/04/18 10:40:34;;;;;;;6.15;3.60;;;;;;;8.37;73.66;96556.56;2195352;26;20590;-68
2024/04/18 10:41:45;;;;;;;7.97;4.10;;;;;;;8.36;73.76;96552.31;2195781;26;20575;-68
2024/04/18 10:42:46;;;;;;;7.60;4.10;;;;;;;8.21;74.28;96557.16;2196261;26;20872;-68
2024/04/18 10:43:48;;;;;;;7.93;3.70;;;;;;;8.09;74.77;96560.22;2196022;26;20793;-68
2024/04/18 10:44:50;;;;;;;7.20;3.88;;;;;;;8.05;76.65;96558.59;2194407;26;20214;-68
2024/04/18 10:45:53;;;;;;;6.50;3.90;;;;;;;7.25;78.15;96567.38;2183657;27;20273;-68
2024/04/18 10:46:55;;;;;;;8.63;3.67;;;;;;;6.97;79.54;96563.94;2194790;26;20224;-68
2024/04/18 10:47:58;;;;;;;6.85;4.60;;;;;;;6.96;80.64;96564.00;2196056;26;20316;-68
2024/04/18 10:49:01;;;;;;;4.82;3.50;;;;;;;7.16;82.31;96568.53;2192411;26;20253;-68
2024/04/18 10:50:03;;;;;;;7.50;4.05;;;;;;;7.15;81.78;96567.69;2194315;26;20524;-68
2024/04/18 10:51:05;;;;;;;6.50;2.80;;;;;;;6.64;81.50;96576.19;2192534;26;20264;-68
2024/04/18 10:52:10;;;;;;;4.65;3.10;;;;;;;6.89;83.11;96570.28;2197484;26;20820;-66
2024/04/18 10:53:12;;;;;;;4.80;3.40;;;;;;;6.94;82.10;96569.22;2199069;26;20218;-66
2024/04/18 10:54:14;;;;;;;5.43;3.15;;;;;;;7.39;82.75;96573.00;2198353;26;20222;-66
2024/04/18 10:55:16;;;;;;;5.60;4.15;;;;;;;7.59;82.19;96568.88;2197447;26;20260;-66
2024/04/18 10:56:18;;;;;;;5.68;3.42;;;;;;;7.96;80.47;96567.59;2199538;26;20225;-66
2024/04/18 10:57:19;;;;;;;5.45;3.70;;;;;;;7.68;79.46;96568.53;2189460;26;20214;-66
2024/04/18 10:58:21;;;;;;;9.20;3.75;;;;;;;7.91;78.10;96567.75;2192798;26;20221;-66
2024/04/18 10:59:23;;;;;;;6.18;4.15;;;;;;;8.12;79.74;96557.50;2196183;26;20217;-66
2024/04/18 11:00:24;;;;;;;7.75;4.28;;;;;;;7.90;78.66;96567.78;2194901;26;20303;-66
2024/04/18 11:01:26;;;;;;;5.68;4.13;;;;;;;7.90;79.12;96567.78;2194872;26;20233;-66
2024/04/18 11:02:28;;;;;;;8.13;3.72;;;;;;;7.74;79.15;96570.94;2195385;26;20292;-66
2024/04/18 11:03:31;;;;;;;9.07;4.20;;;;;;;7.71;77.80;96562.38;2188213;26;20254;-66
2024/04/18 11:04:33;;;;;;;16.02;4.55;;;;;;;7.96;77.83;96567.59;2193564;26;20260;-66
2024/04/18 11:05:37;;;;;;;6.18;3.78;;;;;;;7.93;76.51;96572.91;2196152;26;20516;-65
2024/04/18 11:06:39;;;;;;;9.40;4.65;;;;;;;8.48;77.06;96570.94;2196652;26;20211;-66
2024/04/18 11:07:41;;;;;;;6.45;3.97;;;;;;;8.94;76.59;96576.13;2195251;26;20217;-66
2024/04/18 11:08:42;;;;;;;6.43;4.20;;;;;;;9.27;74.50;96573.09;2191560;26;20257;-65
2024/04/18 11:09:44;;;;;;;7.18;4.47;;;;;;;9.70;74.43;96574.81;2196894;26;20220;-66
2024/04/18 11:10:47;;;;;;;5.80;4.00;;;;;;;9.69;74.10;96575.72;2196777;26;20333;-66
2024/04/18 11:11:52;;;;;;;6.22;3.22;;;;;;;8.43;75.19;96569.34;2195306;26;20817;-66
2024/04/18 11:12:55;;;;;;;3.88;2.50;;;;;;;7.90;76.85;96573.00;2197104;26;20260;-66
2024/04/18 11:13:58;;;;;;;4.95;2.20;;;;;;;7.51;77.00;96582.13;2194462;26;20269;-66
2024/04/18 11:15:00;;;;;;;6.82;2.10;;;;;;;6.98;77.71;96583.81;2192991;27;20218;-63
2024/04/18 11:16:02;;;;;;;7.85;4.20;;;;;;;6.43;78.21;96582.88;2196461;26;20216;-64
2024/04/18 11:17:04;;;;;;;4.72;2.22;;;;;;;6.51;80.22;96580.91;2195266;26;20221;-64
2024/04/18 11:18:05;;;;;;;4.32;2.70;;;;;;;6.26;81.82;96583.34;2196369;26;20260;-64
2024/04/18 11:19:08;;;;;;;3.88;2.35;;;;;;;5.88;83.21;96586.94;2194836;26;20320;-64
2024/04/18 11:20:13;;;;;;;4.15;2.53;;;;;;;5.73;83.84;96587.34;2194880;26;20893;-64
2024/04/18 11:21:16;;;;;;;4.50;2.97;;;;;;;5.86;84.85;96591.31;2194401;26;20718;-63
2024/04/18 11:22:17;;;;;;;5.70;3.50;;;;;;;5.77;85.84;96588.97;2197098;26;20296;-64
2024/04/18 11:23:22;;;;;;;4.95;3.70;;;;;;;5.70;86.86;96584.81;2174180;26;20554;-64
2024/04/18 11:24:40;;;;;;;6.57;2.65;;;;;;;5.47;86.67;96588.03;2197261;26;20225;-64
2024/04/18 11:25:42;;;;;;;4.75;3.25;;;;;;;5.55;86.70;96593.88;2195703;26;20276;-64
2024/04/18 11:26:44;;;;;;;3.75;2.72;;;;;;;5.41;86.31;96591.63;2196944;26;20341;-63
2024/04/18 11:27:46;;;;;;;4.35;2.90;;;;;;;5.70;85.73;96592.59;2196121;26;20256;-64
2024/04/18 11:28:52;;;;;;;4.68;3.28;;;;;;;5.75;84.68;96585.56;2192834;26;20253;-64
2024/04/18 11:29:53;;;;;;;5.40;2.83;;;;;;;5.35;84.76;96586.59;2198166;26;20292;-64
2024/04/18 11:30:55;;;;;;;6.60;3.05;;;;;;;5.51;87.42;96594.81;2194920;26;20222;-64
2024/04/18 11:32:08;;;;;;;6.10;2.72;;;;;;;5.52;85.25;96594.81;2196622;26;20728;-66
2024/04/18 11:33:11;;;;;;;4.30;2.70;;;;;;;5.71;85.80;96584.81;2195358;26;20311;-66
2024/04/18 11:34:13;;;;;;;4.97;2.90;;;;;;;5.81;86.33;96590.59;2197000;26;20323;-66
2024/04/18 11:35:15;;;;;;;3.47;2.30;;;;;;;5.81;84.56;96587.16;2195541;26;20539;-66
2024/04/18 11:36:18;;;;;;;4.40;2.80;;;;;;;5.84;83.60;96594.84;2196896;26;20363;-66
2024/04/18 11:37:20;;;;;;;4.47;3.08;;;;;;;6.08;84.50;96589.91;2192561;26;20226;-66
2024/04/18 11:38:24;;;;;;;6.45;3.33;;;;;;;6.66;84.08;96596.00;2193669;26;20225;-66
2024/04/18 11:39:29;;;;;;;6.57;2.53;;;;;;;6.73;81.06;96581.13;2194824;26;20222;-66
2024/04/18 11:40:30;;;;;;;4.13;2.50;;;;;;;7.19;82.23;96590.06;2195760;26;20218;-66
2024/04/18 11:41:32;;;;;;;3.85;2.53;;;;;;;7.72;80.74;96587.47;2197046;26;20255;-66
2024/04/18 11:42:34;;;;;;;3.70;2.72;;;;;;;7.62;80.12;96592.16;2198025;26;20218;-67
2024/04/18 11:43:35;;;;;;;5.75;3.08;;;;;;;7.63;80.50;96588.66;2196754;26;21063;-66
2024/04/18 11:44:37;;;;;;;6.35;2.90;;;;;;;7.74;79.69;96581.34;2202281;26;20212;-67
2024/04/18 11:45:38;;;;;;;5.32;2.83;;;;;;;7.80;78.11;96588.91;2196554;26;20221;-67
2024/04/18 11:46:40;;;;;;;5.20;3.10;;;;;;;8.12;77.74;96588.69;2198410;26;20206;-66
2024/04/18 11:47:42;;;;;;;4.07;2.72;;;;;;;8.68;76.25;96589.31;2195929;26;20234;-66
2024/04/18 11:48:43;;;;;;;5.82;1.92;;;;;;;8.79;75.48;96587.97;2191047;26;20315;-66
2024/04/18 11:49:45;;;;;;;13.00;7.65;;;;;;;8.56;73.58;96588.00;2194921;26;20256;-65
2024/04/18 11:50:47;;;;;;;7.63;4.68;;;;;;;8.73;72.49;96588.22;2192712;26;20218;-65
2024/04/18 11:51:48;;;;;;;6.15;3.92;;;;;;;9.35;72.23;96591.00;2195076;26;20241;-65
2024/04/18 11:52:50;;;;;;;6.90;4.00;;;;;;;9.92;71.72;96579.97;2197547;26;20284;-65
2024/04/18 11:53:52;;;;;;;8.07;5.00;;;;;;;10.13;71.21;96586.88;2195142;26;20252;-64
2024/04/18 11:54:54;;;;;;;7.43;3.33;;;;;;;10.09;68.28;96587.94;2194513;26;20214;-65
2024/04/18 11:55:57;;;;;;;5.47;3.83;;;;;;;9.82;68.60;96573.47;2195488;26;20259;-65
2024/04/18 11:57:00;;;;;;;5.65;3.70;;;;;;;9.96;67.60;96590.19;2194120;26;20962;-65
2024/04/18 11:58:05;;;;;;;6.88;3.63;;;;;;;10.21;69.61;96585.66;2193602;26;20214;-65
2024/04/18 11:59:06;;;;;;;7.43;4.40;;;;;;;10.62;69.26;96591.66;2194535;26;20289;-65
2024/04/18 12:00:08;;;;;;;7.47;3.67;;;;;;;10.38;69.40;96580.56;2194604;26;20332;-65
2024/04/18 12:01:11;;;;;;;8.23;4.07;;;;;;;10.22;69.57;96576.94;2195368;26;21081;-65
2024/04/18 12:02:13;;;;;;;5.95;4.10;;;;;;;9.93;70.45;96585.13;2193476;26;20320;-65
2024/04/18 12:03:14;;;;;;;7.40;4.38;;;;;;;10.23;70.79;96571.66;2190009;26;20272;-65
2024/04/18 12:04:16;;;;;;;6.53;4.40;;;;;;;10.24;70.79;96577.72;2195831;26;20214;-65
2024/04/18 12:05:18;;;;;;;6.60;4.53;;;;;;;9.95;72.21;96582.44;2194324;26;20259;-66
2024/04/18 12:06:20;;;;;;;5.05;3.95;;;;;;;9.66;72.75;96583.69;2194315;26;20722;-65
2024/04/18 12:07:22;;;;;;;7.95;4.20;;;;;;;9.63;73.46;96590.72;2194570;26;20260;-65
2024/04/18 12:08:24;;;;;;;6.90;4.22;;;;;;;9.38;73.02;96582.22;2193728;26;20271;-66
2024/04/18 12:09:26;;;;;;;5.28;3.90;;;;;;;10.13;70.22;96580.78;2194525;26;20221;-65
2024/04/18 12:10:27;;;;;;;8.45;3.95;;;;;;;9.74;72.91;96587.66;2196673;26;20230;-65
2024/04/18 12:11:30;;;;;;;8.93;3.92;;;;;;;9.42;72.63;96595.06;2197475;26;20218;-65
2024/04/18 12:12:31;;;;;;;7.55;4.47;;;;;;;10.24;71.95;96586.38;2193494;26;20217;-65
2024/04/18 12:13:33;;;;;;;5.50;4.00;;;;;;;10.13;71.27;96588.63;2196503;26;21454;-65
2024/04/18 12:14:35;;;;;;;6.35;3.95;;;;;;;10.07;71.62;96587.13;2195084;26;20222;-65
2024/04/18 12:15:37;;;;;;;6.38;3.80;;;;;;;9.58;72.34;96594.44;2195297;26;20268;-66
2024/04/18 12:16:38;;;;;;;5.55;3.50;;;;;;;9.11;72.44;96585.88;2194295;26;20833;-65
2024/04/18 12:17:40;;;;;;;5.80;3.65;;;;;;;9.60;71.90;96585.63;2194781;26;20261;-65
2024/04/18 12:18:42;;;;;;;6.85;4.40;;;;;;;9.38;71.52;96590.03;2194041;26;20324;-66
2024/04/18 12:19:43;;;;;;;6.88;4.20;;;;;;;9.44;71.57;96587.19;2201403;26;20217;-65
2024/04/18 12:20:45;;;;;;;5.07;3.58;;;;;;;9.63;70.02;96580.28;2193850;26;20915;-65
2024/04/18 12:21:47;;;;;;;5.10;3.33;;;;;;;10.01;71.29;96600.44;2195503;26;20268;-66
2024/04/18 12:22:48;;;;;;;5.60;3.40;;;;;;;9.94;71.05;96596.38;2196102;26;20285;-65
2024/04/18 12:23:50;;;;;;;5.07;3.13;;;;;;;9.77;70.97;96595.34;2194122;26;20359;-65
2024/04/18 12:24:52;;;;;;;5.13;3.30;;;;;;;9.49;70.16;96603.47;2195606;26;20218;-65
2024/04/18 12:25:54;;;;;;;5.15;2.97;;;;;;;9.81;70.87;96601.28;2196207;26;20312;-65
2024/04/18 12:26:55;;;;;;;4.30;2.75;;;;;;;9.71;68.75;96599.97;2191563;26;20219;-65
2024/04/18 12:27:56;;;;;;;4.10;2.58;;;;;;;9.70;70.07;96601.75;2192568;26;20221;-66
2024/04/18 12:28:59;;;;;;;4.45;2.88;;;;;;;9.96;70.04;96602.41;2187174;26;20247;-65
2024/04/18 12:30:00;;;;;;;4.03;3.00;;;;;;;9.83;69.00;96596.88;2191106;26;20221;-65
2024/04/18 12:31:02;;;;;;;5.50;3.10;;;;;;;10.49;69.67;96598.38;2197755;26;20218;-66
2024/04/18 12:32:04;;;;;;;4.35;3.13;;;;;;;11.03;67.51;96598.50;2193998;26;20229;-66
2024/04/18 12:33:06;;;;;;;5.20;3.67;;;;;;;12.07;65.80;96598.72;2198804;26;20209;-66
2024/04/18 12:34:07;;;;;;;3.95;3.03;;;;;;;12.12;64.03;96596.69;2196047;26;20257;-66
2024/04/18 12:35:10;;;;;;;5.32;3.30;;;;;;;11.80;62.41;96599.16;2196497;26;20252;-66
2024/04/18 12:36:13;;;;;;;4.63;3.10;;;;;;;12.09;63.63;96604.72;2188785;26;20260;-66
2024/04/18 12:37:18;;;;;;;7.90;3.55;;;;;;;11.93;64.30;96589.78;2193711;26;20221;-66
2024/04/18 12:38:20;;;;;;;4.38;3.10;;;;;;;11.30;64.06;96598.13;2186161;26;20225;-65
2024/04/18 12:39:22;;;;;;;5.63;3.25;;;;;;;12.27;62.17;96592.44;2196294;26;20255;-66
2024/04/18 12:40:24;;;;;;;6.63;3.70;;;;;;;12.08;62.06;96593.38;2193995;26;20221;-66
2024/04/18 12:41:26;;;;;;;5.13;3.35;;;;;;;12.65;62.03;96593.97;2194943;26;20891;-65
2024/04/18 12:42:28;;;;;;;6.20;3.55;;;;;;;12.43;60.99;96589.88;2196681;26;20244;-66
2024/04/18 12:43:29;;;;;;;13.93;3.10;;;;;;;13.08;59.93;96602.09;2224033;26;20231;-66
2024/04/18 12:44:31;;;;;;;4.38;2.65;;;;;;;12.79;60.43;96595.84;2221593;26;20219;-66
2024/04/18 12:45:32;;;;;;;5.35;3.55;;;;;;;13.25;59.45;96593.28;2197435;26;20215;-66
2024/04/18 12:46:36;;;;;;;3.42;2.63;;;;;;;12.65;60.19;96584.31;2197826;26;20262;-66
2024/04/18 12:47:38;;;;;;;4.57;2.45;;;;;;;12.63;59.82;96598.44;2193153;26;20237;-66
2024/04/18 12:48:40;;;;;;;4.93;2.75;;;;;;;12.02;61.96;96595.47;2195687;26;20385;-66
2024/04/18 12:49:45;;;;;;;4.25;2.67;;;;;;;12.95;61.76;96595.81;2198081;26;20218;-67
2024/04/18 12:50:47;;;;;;;5.30;3.08;;;;;;;13.02;59.43;96600.66;2193251;26;20226;-66
2024/04/18 12:51:49;;;;;;;4.18;2.85;;;;;;;13.77;60.85;96605.22;2194547;26;20225;-66
2024/04/18 12:52:50;;;;;;;6.25;3.58;;;;;;;14.52;57.62;96594.66;2194294;26;20927;-66
2024/04/18 12:53:52;;;;;;;4.45;3.13;;;;;;;13.18;58.30;96598.03;2193829;26;20253;-66
2024/04/18 12:54:57;;;;;;;5.47;2.70;;;;;;;13.78;57.89;96595.59;2192888;26;20684;-66
2024/04/18 12:55:59;;;;;;;3.65;2.70;;;;;;;13.98;58.04;96599.63;2198509;26;20217;-66
2024/04/18 12:57:00;;;;;;;3.88;2.72;;;;;;;13.20;58.53;96596.19;2196667;26;20317;-66
2024/04/18 12:58:02;;;;;;;4.80;2.50;;;;;;;14.01;57.66;96607.34;2196554;26;20212;-66
2024/04/18 12:59:04;;;;;;;7.93;3.65;;;;;;;14.02;57.35;96596.75;2194966;26;20257;-66
2024/04/18 13:00:06;;;;;;;9.65;5.57;;;;;;;13.45;57.24;96597.44;2195128;26;20217;-67
2024/04/18 13:01:08;;;;;;;4.55;3.40;;;;;;;13.46;57.94;96598.25;2193642;26;20521;-66
2024/04/18 13:02:11;;;;;;;4.07;2.65;;;;;;;13.75;56.80;96601.88;2201826;26;20312;-66
2024/04/18 13:03:14;;;;;;;4.50;2.50;;;;;;;13.38;56.99;96593.47;2189301;26;20222;-66
2024/04/18 13:04:16;;;;;;;3.42;2.45;;;;;;;13.75;56.70;96595.75;2185686;27;20293;-66
2024/04/18 13:05:18;;;;;;;11.20;2.50;;;;;;;14.31;56.42;96601.19;2193525;26;20886;-67
2024/04/18 13:06:20;;;;;;;4.03;2.47;;;;;;;14.56;55.88;96592.66;2198032;26;20221;-66
2024/04/18 13:07:23;;;;;;;4.00;2.50;;;;;;;14.21;54.70;96601.75;2199204;26;20336;-66
2024/04/18 13:08:24;;;;;;;6.93;2.20;;;;;;;13.31;57.27;96595.56;2192106;26;20237;-67
2024/04/18 13:09:26;;;;;;;8.88;2.45;;;;;;;13.65;57.98;96598.91;2196353;26;20260;-66
2024/04/18 13:10:27;;;;;;;4.72;3.17;;;;;;;14.04;56.75;96597.53;2193895;26;20227;-66
2024/04/18 13:11:29;;;;;;;4.10;2.22;;;;;;;14.34;56.30;96601.84;2197160;26;20548;-66
2024/04/18 13:12:30;;;;;;;5.80;3.42;;;;;;;14.29;56.28;96603.09;2194214;26;20221;-67
2024/04/18 13:13:32;;;;;;;5.03;2.85;;;;;;;14.28;57.97;96601.38;2190114;26;20307;-66
2024/04/18 13:14:33;;;;;;;5.00;2.40;;;;;;;13.66;59.68;96603.25;2202939;26;20220;-66
2024/04/18 13:15:36;;;;;;;8.50;3.80;;;;;;;13.30;58.87;96604.34;2201408;26;20266;-67
2024/04/18 13:16:38;;;;;;;5.30;3.00;;;;;;;12.70;61.77;96605.88;2194670;26;20253;-67
2024/04/18 13:17:39;;;;;;;8.55;2.50;;;;;;;12.61;61.02;96602.91;2195979;26;20256;-67
2024/04/18 13:18:42;;;;;;;4.47;2.60;;;;;;;12.35;61.98;96605.13;2196910;26;20389;-67
2024/04/18 13:19:44;;;;;;;4.03;2.67;;;;;;;12.01;62.96;96607.72;2196354;26;20216;-67
2024/04/18 13:20:47;;;;;;;4.78;2.80;;;;;;;11.25;63.62;96605.34;2194994;26;20317;-67
2024/04/18 13:21:49;;;;;;;3.45;2.38;;;;;;;11.54;63.43;96600.44;2193162;26;20680;-66
2024/04/18 13:22:51;;;;;;;6.78;3.25;;;;;;;12.07;63.91;96604.81;2194278;26;20222;-67
2024/04/18 13:23:53;;;;;;;8.18;3.30;;;;;;;12.08;63.74;96603.03;2195346;26;20327;-67